»·PEaware :: SKW3218 KELP-KPHX

SKW3218 :: KELP-KPHX

FLIGHT INFORMATION

Flight Status: Arrived
Operator:
SkyWest Airlines
More flights by this operator :: More flights under this callsign
Pilot: Aundrey S. (17120)
Aircraft: CANADAIR CL-600 CRJ-200
(CRJ2)
More flights by this aircraft type
Origin: KELP El Paso Intl
United States
Destination: KPHX Phoenix Sky Harbor Intl
United States
More flights between these airports :: More routes between these airports
Route: ATKNN5 ATKNN DRRVR PINNG1
File this flight plan on PilotEdge
Remarks:
Altitude:
(Current/Filed)
28,000ft
Speed:
(Current/Filed)
450kts
Departed: 04-May-19 08:18 PM
Arrived: 04-May-19 09:16 PM
Distance/Time
Traveled:
300nm/0:57
Distance/Time
To Go:
Arrived

Flight Plot

Page will automatically refresh every two minutes.

Flight plan parsing failed; only flown route is shown


Map Options




Map Legend


Flown Route
Filed Route
Departure Airport
Arrival Airport
Navaid (VOR, NDB)
Fix

Horizontal Profiles

Position Reports

Time Latitude Longitude Heading Altitude Ground
Speed
04-May-19 19:28 31.800646 -106.396153 227 3919ft 0kts
04-May-19 19:29 31.800646 -106.396153 227 3919ft 0kts
04-May-19 19:30 31.800646 -106.396153 227 3919ft 0kts
04-May-19 19:31 31.800646 -106.396153 227 3919ft 0kts
04-May-19 19:32 31.800646 -106.396153 227 3919ft 0kts
04-May-19 19:34 31.800646 -106.396153 227 3919ft 0kts
04-May-19 19:34 31.800646 -106.396153 227 3919ft 0kts
04-May-19 19:35 31.800646 -106.396153 227 3919ft 0kts
04-May-19 19:36 31.800646 -106.396153 227 3919ft 0kts
04-May-19 19:37 31.800646 -106.396153 227 3919ft 0kts
04-May-19 19:38 31.800646 -106.396153 227 3919ft 0kts
04-May-19 19:39 31.800646 -106.396153 227 3919ft 0kts
04-May-19 19:40 31.800646 -106.396153 227 3919ft 0kts
04-May-19 19:41 31.800646 -106.396153 227 3919ft 0kts
04-May-19 19:42 31.800646 -106.396153 227 3919ft 0kts
04-May-19 19:43 31.800646 -106.396153 227 3919ft 0kts
04-May-19 19:44 31.800646 -106.396153 227 3919ft 0kts
04-May-19 19:45 31.800646 -106.396153 227 3919ft 0kts
04-May-19 19:46 31.800646 -106.396153 227 3919ft 0kts
04-May-19 19:47 31.800646 -106.396153 227 3919ft 0kts
04-May-19 19:48 31.800646 -106.396153 227 3919ft 0kts
04-May-19 19:49 31.800646 -106.396153 227 3919ft 0kts
04-May-19 19:50 31.800646 -106.396153 227 3919ft 0kts
04-May-19 19:51 31.800646 -106.396153 227 3919ft 0kts
04-May-19 19:52 31.800646 -106.396153 227 3919ft 0kts
04-May-19 19:53 31.800646 -106.396153 227 3919ft 0kts
04-May-19 19:54 31.800646 -106.396153 227 3919ft 0kts
04-May-19 19:55 31.800646 -106.396153 227 3919ft 0kts
04-May-19 19:56 31.800646 -106.396153 227 3919ft 0kts
04-May-19 19:57 31.800646 -106.396153 227 3919ft 0kts
04-May-19 19:58 31.800646 -106.396153 227 3919ft 0kts
04-May-19 19:59 31.800646 -106.396153 227 3919ft 0kts
04-May-19 20:00 31.800646 -106.396153 227 3919ft 0kts
04-May-19 20:01 31.800646 -106.396153 227 3919ft 0kts
04-May-19 20:02 31.800646 -106.396153 227 3919ft 0kts
04-May-19 20:03 31.800646 -106.396153 227 3919ft 0kts
04-May-19 20:04 31.800643 -106.396156 227 3919ft 0kts
04-May-19 20:05 31.800624 -106.395603 325 3919ft 2kts
04-May-19 20:06 31.800526 -106.395547 342 3919ft 0kts
04-May-19 20:07 31.800526 -106.395547 342 3919ft 0kts
04-May-19 20:08 31.800526 -106.395547 342 3919ft 0kts
04-May-19 20:09 31.800965 -106.395666 341 3919ft 8kts
04-May-19 20:10 31.802614 -106.392897 45 3922ft 15kts
04-May-19 20:11 31.806232 -106.388954 42 3926ft 19kts
04-May-19 20:12 31.810031 -106.384262 50 3930ft 21kts
04-May-19 20:13 31.814043 -106.378644 49 3935ft 23kts
04-May-19 20:14 31.818173 -106.372876 50 3946ft 22kts
04-May-19 20:15 31.821585 -106.368893 324 3951ft 10kts
04-May-19 20:16 31.822379 -106.369824 285 3949ft 10kts
04-May-19 20:17 31.820666 -106.373172 229 3943ft 62kts
04-May-19 20:18 31.791182 -106.415192 232 4348ft 218kts
04-May-19 20:19 31.766674 -106.489929 280 7750ft 255kts
04-May-19 20:20 31.800007 -106.569460 300 11599ft 292kts
04-May-19 20:21 31.819774 -106.670232 279 15076ft 336kts
04-May-19 20:22 31.835967 -106.780553 279 17020ft 364kts
04-May-19 20:23 31.853455 -106.901065 278 17021ft 374kts
04-May-19 20:24 31.870762 -107.021225 278 17491ft 377kts
04-May-19 20:25 31.887244 -107.136561 279 22189ft 365kts
04-May-19 20:26 31.904277 -107.256380 279 25569ft 380kts
04-May-19 20:27 31.921705 -107.379886 279 27959ft 408kts
04-May-19 20:28 31.941114 -107.518543 279 27954ft 441kts
04-May-19 20:29 31.960905 -107.661093 278 27963ft 443kts
04-May-19 20:30 31.980458 -107.803082 278 28042ft 444kts
04-May-19 20:31 32.000095 -107.946955 278 28112ft 444kts
04-May-19 20:32 32.019555 -108.090776 278 28177ft 444kts
04-May-19 20:33 32.038663 -108.233254 278 28239ft 444kts
04-May-19 20:34 32.057794 -108.377162 278 28334ft 444kts
04-May-19 20:35 32.076544 -108.519463 278 28449ft 442kts
04-May-19 20:36 32.094996 -108.660768 277 28440ft 443kts
04-May-19 20:37 32.113501 -108.803721 277 28471ft 443kts
04-May-19 20:38 32.131979 -108.947767 277 28430ft 443kts
04-May-19 20:39 32.150103 -109.090421 277 28365ft 443kts
04-May-19 20:40 32.168258 -109.234611 277 28271ft 444kts
04-May-19 20:41 32.193725 -109.377177 283 28203ft 444kts
04-May-19 20:42 32.223637 -109.518429 283 28113ft 445kts
04-May-19 20:43 32.253610 -109.660836 282 28045ft 445kts
04-May-19 20:44 32.282629 -109.802569 282 28028ft 445kts
04-May-19 20:45 32.312692 -109.943805 282 28008ft 445kts
04-May-19 20:46 32.341928 -110.085015 282 27983ft 445kts
04-May-19 20:47 32.369869 -110.220860 282 27959ft 445kts
04-May-19 20:48 32.400031 -110.368404 282 27929ft 444kts
04-May-19 20:49 32.428540 -110.508689 282 27867ft 415kts
04-May-19 20:50 32.453470 -110.632089 282 27148ft 364kts
04-May-19 20:51 32.488292 -110.742248 299 25957ft 361kts
04-May-19 20:52 32.544637 -110.841971 300 24688ft 368kts
04-May-19 20:53 32.577740 -110.952262 255 23312ft 368kts
04-May-19 20:54 32.605132 -111.061480 322 21954ft 385kts
04-May-19 20:55 32.692732 -111.132365 311 20595ft 385kts
04-May-19 20:56 32.761027 -111.223183 302 18838ft 350kts
04-May-19 20:57 32.813272 -111.314683 301 17008ft 323kts
04-May-19 20:58 32.861803 -111.400694 301 15185ft 306kts
04-May-19 20:59 32.908128 -111.482990 302 13381ft 298kts
04-May-19 21:00 32.959881 -111.561117 306 12001ft 294kts
04-May-19 21:01 33.008712 -111.634199 306 12004ft 286kts
04-May-19 21:02 33.059829 -111.710814 306 12004ft 301kts
04-May-19 21:03 33.112734 -111.790254 306 11024ft 300kts
04-May-19 21:04 33.161840 -111.864091 306 9910ft 275kts
04-May-19 21:05 33.207380 -111.932747 306 8783ft 253kts
04-May-19 21:06 33.249828 -111.996764 305 7664ft 239kts
04-May-19 21:07 33.290149 -112.057588 305 6994ft 217kts
04-May-19 21:08 33.318593 -112.116484 293 6291ft 206kts
04-May-19 21:09 33.343460 -112.177952 292 4956ft 204kts
04-May-19 21:10 33.376931 -112.227689 354 3539ft 212kts
04-May-19 21:11 33.417855 -112.187311 59 2993ft 174kts
04-May-19 21:12 33.428756 -112.137452 89 2953ft 155kts
04-May-19 21:13 33.428977 -112.080740 92 2036ft 165kts
04-May-19 21:14 33.428880 -112.029839 91 1217ft 150kts
04-May-19 21:15 33.429303 -112.001511 339 1120ft 0kts
04-May-19 21:16 33.429303 -112.001511 339 1120ft 0kts
04-May-19 21:17 33.430528 -112.003178 335 1121ft 13kts
04-May-19 21:18 33.433824 -112.003813 1 1124ft 12kts
04-May-19 21:19 33.438012 -112.003798 0 1127ft 17kts
04-May-19 21:20 33.439034 -111.999651 90 1131ft 15kts
04-May-19 21:21 33.438337 -111.995686 175 1131ft 8kts
04-May-19 21:22 33.437420 -111.996264 270 1129ft 2kts
04-May-19 21:23 33.437420 -111.996302 270 1129ft 0kts

Navigation Log

Ident Type
Flight plan parsing failed, navigation log unavailable